West Manchester, Ohio
Current Conditions -  °F | °C
As of 4:55 PM on Monday 22 Dec 2014 (Local Time) from KVES Reporting Station
Overcast Overcast  
Wind Chill: 36°   Ceiling: 9000
Heat Index: 41°   Visibility: 10mi
Dew Point: 37°   Wind: 7mph
Humidity: 87%   Direction: 120°ESE
Pressure: 29.82"   Gusts: NA
Location:  39.9°N, 84.63°W
Report Text: KVES 222155Z AUTO 12006KT 10SM SCT080 OVC090 05/03 A2982 RMK AO2
Loading
Personal Weather Stations






























Interactive Weather Map New forecast layout! Learn more

10-Day Weather Forecast

Advertisements
Track Severe Weather on mobile